Time;durP1;ratioP1;P1;durP2;ratioP2;P2;SDS_P1;SDS_P2;PMS_P1;PMS_P2;Temp;Humidity;BMP_temperature;BMP_pressure;BME280_temperature;BME280_humidity;BME280_pressure;Samples;Min_cycle;Max_cycle;Signal;HPM_P1;HPM_P2
2023/01/04 00:02:03;;;;;;;3.00;1.57;;;8.50;99.90;;;;;;5000944;28;20511;-85
2023/01/04 00:04:30;;;;;;;2.27;1.17;;;8.50;99.90;;;;;;5002409;28;20501;-86
2023/01/04 00:06:57;;;;;;;3.63;1.53;;;8.50;99.90;;;;;;5001512;28;20458;-85
2023/01/04 00:09:24;;;;;;;6.10;1.33;;;8.50;99.90;;;;;;5000497;28;20465;-86
2023/01/04 00:11:51;;;;;;;6.70;1.47;;;8.50;99.90;;;;;;5000565;28;20820;-85
2023/01/04 00:14:19;;;;;;;3.40;1.30;;;8.50;99.90;;;;;;5001270;28;20578;-85
2023/01/04 00:16:46;;;;;;;4.20;1.10;;;8.50;99.90;;;;;;5000397;28;20485;-86
2023/01/04 00:19:13;;;;;;;3.47;1.10;;;8.60;99.90;;;;;;5000436;28;20533;-86
2023/01/04 00:21:40;;;;;;;2.60;1.33;;;8.60;99.90;;;;;;5000154;28;20475;-86
2023/01/04 00:24:08;;;;;;;7.13;1.30;;;8.60;99.90;;;;;;5001949;28;20472;-85
2023/01/04 00:26:35;;;;;;;3.57;1.20;;;8.60;99.90;;;;;;5004875;28;20482;-86
2023/01/04 00:29:05;;;;;;;3.93;1.00;;;8.70;99.90;;;;;;5003734;28;20457;-84
2023/01/04 00:31:34;;;;;;;9.50;1.70;;;8.70;99.90;;;;;;5005017;28;20452;-83
2023/01/04 00:34:03;;;;;;;3.97;1.80;;;8.80;99.90;;;;;;5004102;28;20991;-85
2023/01/04 00:36:30;;;;;;;4.07;1.33;;;8.80;99.90;;;;;;5003014;28;20461;-85
2023/01/04 00:39:07;;;;;;;2.67;1.20;;;8.80;99.90;;;;;;5001276;28;20459;-82
2023/01/04 00:41:36;;;;;;;3.50;1.10;;;8.80;99.90;;;;;;4993343;28;20491;-82
2023/01/04 00:44:03;;;;;;;3.47;1.20;;;8.80;99.90;;;;;;5000280;28;20497;-82
2023/01/04 00:46:30;;;;;;;4.13;1.60;;;8.80;99.90;;;;;;5006149;28;20548;-83
2023/01/04 00:48:58;;;;;;;4.93;1.50;;;8.90;99.90;;;;;;5008287;28;20457;-84
2023/01/04 00:51:25;;;;;;;3.70;1.03;;;8.90;99.90;;;;;;5006509;28;20518;-84
2023/01/04 00:53:52;;;;;;;4.90;1.60;;;9.00;99.90;;;;;;5048621;23;20495;-78
2023/01/04 00:56:19;;;;;;;3.40;1.10;;;9.00;99.90;;;;;;5032734;28;20496;-78
2023/01/04 00:58:46;;;;;;;4.33;2.43;;;9.00;99.90;;;;;;5029847;28;20549;-78
2023/01/04 01:01:13;;;;;;;2.70;1.10;;;8.90;99.90;;;;;;5026153;28;20454;-78
2023/01/04 01:03:39;;;;;;;3.97;1.10;;;8.90;99.90;;;;;;5015637;28;20565;-78
2023/01/04 01:06:08;;;;;;;3.73;1.50;;;8.90;99.90;;;;;;5028444;28;20899;-78
2023/01/04 01:08:36;;;;;;;3.47;1.53;;;8.80;99.90;;;;;;5034289;28;20453;-78
2023/01/04 01:11:04;;;;;;;3.67;1.17;;;8.80;99.90;;;;;;5034671;28;20466;-78
2023/01/04 01:13:31;;;;;;;2.90;1.00;;;8.70;99.90;;;;;;5033921;28;20475;-78
2023/01/04 01:16:03;;;;;;;3.30;1.17;;;8.60;99.90;;;;;;5034682;28;20446;-78
2023/01/04 01:18:30;;;;;;;3.17;1.30;;;8.60;99.90;;;;;;5033786;28;20454;-78
2023/01/04 01:20:57;;;;;;;4.70;1.37;;;8.60;99.90;;;;;;5034376;28;20447;-78
2023/01/04 01:23:25;;;;;;;2.43;1.10;;;8.50;99.90;;;;;;5033606;28;20494;-78
2023/01/04 01:25:52;;;;;;;3.30;0.90;;;8.50;99.90;;;;;;5036567;28;21053;-78
2023/01/04 01:28:19;;;;;;;6.73;1.50;;;8.50;99.90;;;;;;5035089;28;20472;-78
2023/01/04 01:30:46;;;;;;;5.03;1.50;;;8.40;99.90;;;;;;5031055;28;20458;-76
2023/01/04 01:33:13;;;;;;;3.43;1.13;;;8.40;99.90;;;;;;5032337;28;20480;-77
2023/01/04 01:35:39;;;;;;;8.27;1.17;;;8.30;99.90;;;;;;5031370;28;20464;-77
2023/01/04 01:38:06;;;;;;;3.00;1.13;;;8.30;99.90;;;;;;5024696;28;20449;-76
2023/01/04 01:40:34;;;;;;;2.37;1.00;;;8.30;99.90;;;;;;5030174;28;20879;-76
2023/01/04 01:43:01;;;;;;;5.97;1.83;;;8.20;99.90;;;;;;5031656;28;20481;-77
2023/01/04 01:45:31;;;;;;;4.27;1.50;;;8.20;99.90;;;;;;5030619;28;20973;-77
2023/01/04 01:48:03;;;;;;;2.80;1.10;;;8.20;99.90;;;;;;5040954;28;20467;-77
2023/01/04 01:50:36;;;;;;;3.80;1.30;;;8.10;99.90;;;;;;5047803;28;20953;-77
2023/01/04 01:53:05;;;;;;;2.40;1.00;;;8.10;99.90;;;;;;5040448;28;20451;-78
2023/01/04 01:55:36;;;;;;;7.17;1.50;;;8.10;99.90;;;;;;5040132;28;20548;-77
2023/01/04 01:58:05;;;;;;;3.43;1.20;;;8.00;99.90;;;;;;5036721;28;20449;-77
2023/01/04 02:00:32;;;;;;;7.17;2.20;;;8.00;99.90;;;;;;5042099;28;20539;-78
2023/01/04 02:03:12;;;;;;;5.00;1.20;;;8.00;99.90;;;;;;5042638;28;21013;-78
2023/01/04 02:05:39;;;;;;;10.67;1.60;;;8.00;99.90;;;;;;5047006;28;20776;-79
2023/01/04 02:08:07;;;;;;;2.30;1.20;;;8.00;99.90;;;;;;5041829;28;20458;-79
2023/01/04 02:10:35;;;;;;;3.07;1.30;;;8.10;99.90;;;;;;5044412;28;20472;-81
2023/01/04 02:13:07;;;;;;;2.60;1.13;;;8.10;99.90;;;;;;5044612;28;20876;-80
2023/01/04 02:15:48;;;;;;;3.73;1.37;;;8.10;99.90;;;;;;5040722;28;20461;-78
2023/01/04 02:18:24;;;;;;;3.53;1.40;;;8.10;99.90;;;;;;5042507;28;20451;-77
2023/01/04 02:20:56;;;;;;;4.63;1.37;;;8.10;99.90;;;;;;5043121;28;20535;-78
2023/01/04 02:23:58;;;;;;;4.00;1.40;;;8.10;99.90;;;;;;5036972;28;20479;-79
2023/01/04 02:26:59;;;;;;;3.37;1.33;;;8.10;99.90;;;;;;5046417;28;20523;-79
2023/01/04 02:30:08;;;;;;;5.80;1.60;;;8.10;99.90;;;;;;5042180;28;20448;-79
2023/01/04 02:32:56;;;;;;;7.60;2.00;;;8.10;99.90;;;;;;5045632;28;20455;-80
2023/01/04 02:35:28;;;;;;;9.70;3.53;;;8.10;99.90;;;;;;5045068;28;20469;-81
2023/01/04 02:38:03;;;;;;;6.60;1.67;;;8.10;99.90;;;;;;5043797;28;20937;-80
2023/01/04 02:40:38;;;;;;;4.70;1.70;;;8.10;99.90;;;;;;5040351;28;20454;-81
2023/01/04 02:46:04;;;;;;;4.20;1.67;;;8.10;99.90;;;;;;5042699;28;20424;-81
2023/01/04 02:51:28;;;;;;;7.93;1.97;;;8.00;99.90;;;;;;5042965;28;20551;-79
2023/01/04 02:53:58;;;;;;;4.63;1.70;;;8.10;99.90;;;;;;5040928;28;21012;-80
2023/01/04 02:56:35;;;;;;;3.80;1.60;;;8.10;99.90;;;;;;5045512;28;20461;-80
2023/01/04 02:59:29;;;;;;;2.27;1.10;;;8.10;99.90;;;;;;5044547;28;21057;-80
2023/01/04 03:07:53;;;;;;;10.07;1.83;;;8.20;99.90;;;;;;5033783;28;20882;-78
2023/01/04 03:10:30;;;;;;;3.83;1.30;;;8.20;99.90;;;;;;5046821;28;20445;-79
2023/01/04 03:13:04;;;;;;;2.97;1.70;;;8.20;99.90;;;;;;5038702;28;20797;-81
2023/01/04 03:15:35;;;;;;;3.90;1.60;;;8.20;99.90;;;;;;5047898;28;20440;-80
2023/01/04 03:18:10;;;;;;;5.27;1.53;;;8.30;99.90;;;;;;5047126;28;20505;-80
2023/01/04 03:20:38;;;;;;;3.43;1.30;;;8.30;99.90;;;;;;5046471;28;20436;-80
2023/01/04 03:37:11;;;;;;;13.90;1.97;;;8.30;99.90;;;;;;5035375;28;20797;-79
2023/01/04 03:48:33;;;;;;;2.47;1.20;;;8.40;99.90;;;;;;5034131;28;20987;-80
2023/01/04 03:51:13;;;;;;;6.23;1.30;;;8.40;99.90;;;;;;5036157;28;20448;-79
2023/01/04 03:53:49;;;;;;;2.50;1.30;;;8.40;99.90;;;;;;5035272;28;20566;-79
2023/01/04 03:56:21;;;;;;;3.00;1.47;;;8.50;99.90;;;;;;5037931;28;20445;-80
2023/01/04 03:58:48;;;;;;;2.97;1.83;;;8.50;99.90;;;;;;5037677;28;20980;-80
2023/01/04 04:01:17;;;;;;;2.30;1.30;;;8.50;99.90;;;;;;5051270;28;20482;-78
2023/01/04 04:09:13;;;;;;;5.53;2.70;;;8.50;99.90;;;;;;5035756;28;20452;-80
2023/01/04 04:11:40;;;;;;;8.50;2.70;;;8.60;99.90;;;;;;5036149;28;20900;-78
2023/01/04 04:14:07;;;;;;;6.00;1.63;;;8.60;99.90;;;;;;5034005;28;20846;-78
2023/01/04 04:16:34;;;;;;;6.27;1.60;;;8.60;99.90;;;;;;5035726;28;20460;-77
2023/01/04 04:19:00;;;;;;;3.27;1.47;;;8.60;99.90;;;;;;5035627;28;20463;-79
2023/01/04 04:21:27;;;;;;;4.30;1.40;;;8.50;99.90;;;;;;5034935;28;20449;-82
2023/01/04 04:23:55;;;;;;;8.57;1.67;;;8.50;99.90;;;;;;5034449;28;20488;-80
2023/01/04 04:26:24;;;;;;;4.70;1.67;;;8.50;99.90;;;;;;5034465;28;20456;-81
2023/01/04 04:28:51;;;;;;;5.27;1.57;;;8.50;99.90;;;;;;5034025;28;20896;-80
2023/01/04 04:31:17;;;;;;;3.47;1.27;;;8.60;99.90;;;;;;5038453;28;20456;-81
2023/01/04 04:33:44;;;;;;;2.80;1.43;;;8.60;99.90;;;;;;5035449;28;21099;-80
2023/01/04 04:36:11;;;;;;;4.53;1.37;;;8.60;99.90;;;;;;5036870;28;20564;-80
2023/01/04 04:38:38;;;;;;;3.80;1.10;;;8.60;99.90;;;;;;5035608;28;20449;-80
2023/01/04 04:43:55;;;;;;;4.20;1.13;;;8.70;99.90;;;;;;5036823;28;20490;-80
2023/01/04 04:46:22;;;;;;;2.27;1.20;;;8.70;99.90;;;;;;5037038;28;20540;-80
2023/01/04 04:48:49;;;;;;;3.60;1.30;;;8.70;99.90;;;;;;5035398;28;20827;-80
2023/01/04 04:51:16;;;;;;;2.63;1.10;;;8.60;99.90;;;;;;5039769;28;20468;-80
2023/01/04 04:53:43;;;;;;;2.10;1.10;;;8.60;99.90;;;;;;5044156;28;20513;-80
2023/01/04 04:56:10;;;;;;;2.40;1.50;;;8.70;99.90;;;;;;5041138;28;20482;-80
2023/01/04 04:58:38;;;;;;;2.80;1.20;;;8.60;99.90;;;;;;5035484;28;20669;-81
2023/01/04 05:01:06;;;;;;;2.63;1.10;;;8.70;99.90;;;;;;5037187;28;20463;-80
2023/01/04 05:03:33;;;;;;;3.87;1.10;;;8.60;99.90;;;;;;5036116;28;20503;-80
2023/01/04 05:06:00;;;;;;;4.03;1.50;;;8.60;99.90;;;;;;5035235;28;20461;-79
2023/01/04 05:08:27;;;;;;;2.20;1.07;;;8.70;99.90;;;;;;5034651;28;20453;-80
2023/01/04 05:10:54;;;;;;;2.97;1.30;;;8.70;99.90;;;;;;5035326;28;20869;-80
2023/01/04 05:13:20;;;;;;;1.47;0.90;;;8.70;99.90;;;;;;5035276;28;20445;-80
2023/01/04 05:15:48;;;;;;;2.73;0.97;;;8.70;99.90;;;;;;5034567;28;20898;-80
2023/01/04 05:18:18;;;;;;;1.73;1.03;;;8.70;99.90;;;;;;5034408;28;20213;-80
2023/01/04 05:20:45;;;;;;;1.63;0.90;;;8.70;99.90;;;;;;5035695;28;20448;-80
2023/01/04 05:23:13;;;;;;;3.20;0.93;;;8.80;99.90;;;;;;5035974;28;20806;-81
2023/01/04 05:25:40;;;;;;;2.20;1.30;;;8.80;99.90;;;;;;5036071;28;20453;-81
2023/01/04 05:28:08;;;;;;;4.43;1.10;;;8.80;99.90;;;;;;5035160;28;20774;-80
2023/01/04 05:30:49;;;;;;;2.43;1.47;;;8.80;99.90;;;;;;5035400;28;20449;-80
2023/01/04 05:33:18;;;;;;;2.60;1.13;;;8.80;99.90;;;;;;5035766;28;20426;-81
2023/01/04 05:35:45;;;;;;;1.80;1.00;;;8.80;99.90;;;;;;5035079;28;20532;-79
2023/01/04 05:38:13;;;;;;;2.63;1.17;;;8.80;99.90;;;;;;5033482;28;20449;-79
2023/01/04 05:40:39;;;;;;;1.60;1.00;;;8.90;99.90;;;;;;5034859;28;20453;-81
2023/01/04 05:43:06;;;;;;;1.67;1.23;;;8.90;99.90;;;;;;5034968;28;20449;-80
2023/01/04 05:45:33;;;;;;;2.10;1.20;;;8.90;99.90;;;;;;5026989;28;20462;-80
2023/01/04 05:48:00;;;;;;;3.13;1.10;;;9.00;99.90;;;;;;5035146;28;21101;-80
2023/01/04 05:50:28;;;;;;;2.10;0.97;;;9.00;99.90;;;;;;5035229;28;20631;-82
2023/01/04 05:52:55;;;;;;;1.80;1.07;;;9.00;99.90;;;;;;5035450;28;20464;-81
2023/01/04 05:55:22;;;;;;;2.63;1.10;;;9.10;99.90;;;;;;5035601;28;20477;-82
2023/01/04 05:57:48;;;;;;;1.50;0.90;;;9.10;99.90;;;;;;5035043;28;20459;-79
2023/01/04 06:00:16;;;;;;;1.63;1.00;;;9.20;99.90;;;;;;5035869;28;20468;-82
2023/01/04 06:02:43;;;;;;;2.63;1.00;;;9.20;99.90;;;;;;5036250;28;20839;-81
2023/01/04 06:05:11;;;;;;;1.70;1.00;;;9.20;99.90;;;;;;5036074;28;20488;-80
2023/01/04 06:07:40;;;;;;;2.07;1.10;;;9.20;99.90;;;;;;5037318;28;20553;-82
2023/01/04 06:10:08;;;;;;;1.70;0.83;;;9.30;99.90;;;;;;5037095;28;20457;-81
2023/01/04 06:12:35;;;;;;;2.13;1.00;;;9.30;99.90;;;;;;5049758;28;20521;-79
2023/01/04 06:15:02;;;;;;;2.47;1.03;;;9.40;99.90;;;;;;5048962;28;20461;-80
2023/01/04 06:17:29;;;;;;;1.70;0.90;;;9.40;99.90;;;;;;5035244;28;20445;-79
2023/01/04 06:19:56;;;;;;;2.10;1.20;;;9.40;99.90;;;;;;5033405;28;20453;-80
2023/01/04 06:22:23;;;;;;;2.17;1.10;;;9.50;99.90;;;;;;5035390;28;20453;-79
2023/01/04 06:24:51;;;;;;;2.23;0.90;;;9.50;99.90;;;;;;5034787;28;20519;-79
2023/01/04 06:27:17;;;;;;;1.47;0.90;;;9.50;99.90;;;;;;5034774;28;20449;-80
2023/01/04 06:29:44;;;;;;;1.50;0.83;;;9.50;99.90;;;;;;5032808;28;20988;-79
2023/01/04 06:32:11;;;;;;;1.50;0.80;;;9.60;99.90;;;;;;5037985;28;20460;-80
2023/01/04 06:34:38;;;;;;;1.70;0.80;;;9.60;99.90;;;;;;5037550;28;20477;-79
2023/01/04 06:37:05;;;;;;;2.27;1.00;;;9.70;99.90;;;;;;5037864;28;20469;-80
2023/01/04 06:39:32;;;;;;;2.43;0.90;;;9.70;99.90;;;;;;5034312;28;20464;-79
2023/01/04 06:42:00;;;;;;;1.97;0.80;;;9.70;99.90;;;;;;5037732;28;20567;-79
2023/01/04 06:44:27;;;;;;;1.60;0.90;;;9.80;99.90;;;;;;5036878;28;20489;-80
2023/01/04 06:46:54;;;;;;;1.73;0.90;;;9.80;99.90;;;;;;5037817;28;20883;-79
2023/01/04 06:49:21;;;;;;;1.50;0.80;;;9.80;99.90;;;;;;5036381;28;20958;-78
2023/01/04 06:51:47;;;;;;;1.97;0.80;;;9.80;99.90;;;;;;5039834;28;20450;-82
2023/01/04 06:54:14;;;;;;;1.40;0.80;;;9.70;99.90;;;;;;5060608;22;20503;-80
2023/01/04 06:56:41;;;;;;;1.67;0.97;;;9.70;99.90;;;;;;5037095;28;20439;-80
2023/01/04 06:59:10;;;;;;;1.70;1.00;;;9.70;99.90;;;;;;5036602;28;20460;-80
2023/01/04 07:01:36;;;;;;;1.70;0.80;;;9.70;99.90;;;;;;5037179;28;20464;-80
2023/01/04 07:04:03;;;;;;;1.97;0.80;;;9.80;99.90;;;;;;5036976;28;20485;-79
2023/01/04 07:06:30;;;;;;;3.80;1.17;;;9.70;99.90;;;;;;5036190;28;20448;-78
2023/01/04 07:08:57;;;;;;;1.63;0.87;;;9.70;99.90;;;;;;5033960;28;20459;-79
2023/01/04 07:11:24;;;;;;;1.80;1.03;;;9.70;99.90;;;;;;5035881;28;20485;-77
2023/01/04 07:13:51;;;;;;;1.60;1.10;;;9.70;99.90;;;;;;5033167;28;20453;-78
2023/01/04 07:16:19;;;;;;;2.30;1.30;;;9.70;99.90;;;;;;5035740;28;20453;-78
2023/01/04 07:18:46;;;;;;;2.20;1.03;;;9.80;99.90;;;;;;5035473;28;20453;-79
2023/01/04 07:21:13;;;;;;;3.07;1.40;;;9.80;99.90;;;;;;5036651;28;20518;-79
2023/01/04 07:23:40;;;;;;;1.97;1.30;;;9.80;99.90;;;;;;5035965;28;20459;-79
2023/01/04 07:26:07;;;;;;;1.60;0.87;;;9.80;99.90;;;;;;5036182;28;20560;-78
2023/01/04 07:31:20;;;;;;;1.70;0.90;;;9.90;99.90;;;;;;5035648;28;20819;-77
2023/01/04 07:33:49;;;;;;;2.07;0.80;;;9.90;99.90;;;;;;5034687;28;21016;-79
2023/01/04 07:36:16;;;;;;;1.90;1.20;;;9.90;99.90;;;;;;5035078;28;20532;-79
2023/01/04 07:38:43;;;;;;;1.70;1.00;;;9.90;99.90;;;;;;5033957;28;20453;-78
2023/01/04 07:41:10;;;;;;;2.03;1.00;;;9.90;99.90;;;;;;5034033;28;20453;-80
2023/01/04 07:43:37;;;;;;;1.60;0.97;;;9.90;99.90;;;;;;5034983;28;20842;-79
2023/01/04 07:46:03;;;;;;;1.50;1.00;;;9.90;99.90;;;;;;5035569;28;20493;-80
2023/01/04 07:48:32;;;;;;;3.13;1.10;;;9.90;99.90;;;;;;5034945;28;20457;-78
2023/01/04 07:50:58;;;;;;;2.60;1.20;;;9.90;99.90;;;;;;5033804;28;20808;-78
2023/01/04 07:53:25;;;;;;;6.30;1.10;;;9.90;99.90;;;;;;5019310;28;20551;-76
2023/01/04 07:55:56;;;;;;;1.50;0.90;;;9.90;99.90;;;;;;5031543;28;20928;-80
2023/01/04 07:58:23;;;;;;;1.60;0.80;;;9.90;99.90;;;;;;5034092;28;20469;-79
2023/01/04 08:00:50;;;;;;;2.33;1.00;;;9.90;99.90;;;;;;5028999;28;20466;-80
2023/01/04 08:03:17;;;;;;;1.70;0.80;;;10.00;99.90;;;;;;5034543;28;20984;-80
2023/01/04 08:05:45;;;;;;;1.40;0.80;;;10.10;99.90;;;;;;5032897;28;20530;-79
2023/01/04 08:08:12;;;;;;;1.50;0.90;;;10.10;99.90;;;;;;5023621;28;20471;-78
2023/01/04 08:10:39;;;;;;;3.60;0.90;;;10.20;99.90;;;;;;5030763;28;20474;-78
2023/01/04 08:13:05;;;;;;;1.40;0.80;;;10.20;99.90;;;;;;5035192;28;20451;-77
2023/01/04 08:15:32;;;;;;;1.60;1.00;;;10.20;99.90;;;;;;5029235;28;20558;-81
2023/01/04 08:17:59;;;;;;;2.00;0.90;;;10.20;99.90;;;;;;5024426;28;20455;-78
2023/01/04 08:20:26;;;;;;;1.87;1.20;;;10.30;99.90;;;;;;5027799;28;20945;-78
2023/01/04 08:22:54;;;;;;;2.90;1.10;;;10.30;99.90;;;;;;5025535;28;20463;-78
2023/01/04 08:25:21;;;;;;;1.70;1.00;;;10.30;99.90;;;;;;5023555;28;20498;-77
2023/01/04 08:27:51;;;;;;;1.40;0.90;;;10.40;99.90;;;;;;5024612;28;20888;-76
2023/01/04 08:30:17;;;;;;;1.50;0.80;;;10.30;99.90;;;;;;5030975;28;20460;-77
2023/01/04 08:32:45;;;;;;;3.30;1.00;;;10.40;99.90;;;;;;5026496;28;20546;-78
2023/01/04 08:35:12;;;;;;;1.80;0.80;;;10.40;99.90;;;;;;5033580;28;20470;-77
2023/01/04 08:37:39;;;;;;;3.40;0.70;;;10.40;99.90;;;;;;5028449;28;20482;-78
2023/01/04 08:40:09;;;;;;;1.50;0.80;;;10.50;99.90;;;;;;5033335;28;20458;-78
2023/01/04 08:42:35;;;;;;;1.67;0.80;;;10.50;99.90;;;;;;5033044;28;20483;-78
2023/01/04 08:45:02;;;;;;;2.63;1.30;;;10.50;99.90;;;;;;5033296;28;20497;-79
2023/01/04 08:47:30;;;;;;;1.40;0.80;;;10.50;99.90;;;;;;5034146;28;20458;-78
2023/01/04 08:49:57;;;;;;;2.37;0.80;;;10.60;99.90;;;;;;5030502;28;20536;-78
2023/01/04 08:52:24;;;;;;;3.20;0.80;;;10.60;99.90;;;;;;5031956;28;20447;-78
2023/01/04 08:54:51;;;;;;;1.30;0.70;;;10.60;99.90;;;;;;5025877;28;20508;-78
2023/01/04 08:57:19;;;;;;;1.97;0.90;;;10.70;99.90;;;;;;5033479;28;20464;-76
2023/01/04 08:59:47;;;;;;;2.00;0.90;;;10.80;99.90;;;;;;5031157;28;20503;-78
2023/01/04 09:02:21;;;;;;;2.47;0.70;;;10.80;99.90;;;;;;5034162;28;20518;-79
2023/01/04 09:04:48;;;;;;;3.00;0.70;;;10.90;99.90;;;;;;5033238;28;20518;-78
2023/01/04 09:07:15;;;;;;;1.30;0.70;;;10.90;99.90;;;;;;5033796;28;21052;-78
2023/01/04 09:09:42;;;;;;;1.40;0.93;;;11.00;99.90;;;;;;5030761;28;20467;-78
2023/01/04 09:12:09;;;;;;;3.70;0.70;;;11.00;99.90;;;;;;5025447;28;20962;-78
2023/01/04 09:14:37;;;;;;;2.00;0.90;;;11.10;99.90;;;;;;5033842;28;20467;-77
2023/01/04 09:17:04;;;;;;;2.00;0.80;;;11.20;99.90;;;;;;5026777;28;20980;-79
2023/01/04 09:19:31;;;;;;;1.53;0.70;;;11.30;99.90;;;;;;5027082;28;20462;-77
2023/01/04 09:21:58;;;;;;;2.47;0.90;;;11.30;99.90;;;;;;5033666;28;20464;-78
2023/01/04 09:24:25;;;;;;;2.33;0.80;;;11.30;99.90;;;;;;5034104;28;20480;-79
2023/01/04 09:26:52;;;;;;;1.90;0.80;;;11.30;99.90;;;;;;5030007;28;20452;-78
2023/01/04 09:29:19;;;;;;;2.87;0.97;;;11.30;99.90;;;;;;5014725;28;20459;-77
2023/01/04 09:31:47;;;;;;;1.83;0.80;;;11.40;99.90;;;;;;5034651;28;20494;-79
2023/01/04 09:34:14;;;;;;;1.90;0.70;;;11.30;99.90;;;;;;5035465;28;20513;-79
2023/01/04 09:36:41;;;;;;;1.63;0.70;;;11.30;99.90;;;;;;5036211;28;20478;-79
2023/01/04 09:39:08;;;;;;;2.20;0.83;;;11.30;99.90;;;;;;5040628;28;20445;-78
2023/01/04 09:41:37;;;;;;;1.40;0.77;;;11.20;99.90;;;;;;5047815;28;20453;-79
2023/01/04 09:44:15;;;;;;;1.50;0.80;;;11.10;99.90;;;;;;5049366;28;20532;-78
2023/01/04 09:46:48;;;;;;;1.57;0.80;;;11.00;99.90;;;;;;5040515;28;20478;-78
2023/01/04 09:49:21;;;;;;;1.90;1.17;;;11.00;99.90;;;;;;5034679;28;20444;-79
2023/01/04 09:51:55;;;;;;;2.63;0.80;;;11.00;99.90;;;;;;5037704;28;20458;-78
2023/01/04 09:54:27;;;;;;;2.13;0.93;;;11.00;99.90;;;;;;5037053;28;20475;-79
2023/01/04 09:56:58;;;;;;;1.57;0.90;;;10.90;99.90;;;;;;5024945;28;20508;-79
2023/01/04 09:59:30;;;;;;;1.93;0.80;;;10.90;99.90;;;;;;5033106;28;20464;-78
2023/01/04 10:02:01;;;;;;;3.73;0.90;;;11.00;99.90;;;;;;5027315;28;20522;-79
2023/01/04 10:04:46;;;;;;;1.80;1.20;;;10.90;99.90;;;;;;5034084;28;20562;-78
2023/01/04 10:07:26;;;;;;;2.43;1.90;;;11.00;99.90;;;;;;5038760;28;20486;-78
2023/01/04 10:09:53;;;;;;;2.50;1.00;;;11.00;99.90;;;;;;5036144;28;20457;-78
2023/01/04 10:12:42;;;;;;;1.73;0.97;;;11.00;99.90;;;;;;5035774;28;20547;-79
2023/01/04 10:15:22;;;;;;;2.37;1.10;;;11.00;99.90;;;;;;5033258;28;20583;-78
2023/01/04 10:18:02;;;;;;;10.93;1.47;;;10.90;99.90;;;;;;5030724;28;20463;-77
2023/01/04 10:20:59;;;;;;;1.50;0.80;;;10.90;99.90;;;;;;5033620;28;20454;-78
2023/01/04 10:23:40;;;;;;;1.60;0.80;;;10.90;99.90;;;;;;5038128;28;20462;-78
2023/01/04 10:26:13;;;;;;;4.27;0.93;;;11.00;99.90;;;;;;5037296;28;20574;-78
2023/01/04 10:29:25;;;;;;;3.40;0.97;;;11.00;99.90;;;;;;5039987;28;20448;-79
2023/01/04 10:31:57;;;;;;;5.40;2.50;;;11.00;99.90;;;;;;5031617;28;20491;-79
2023/01/04 10:34:27;;;;;;;1.50;0.80;;;11.00;99.90;;;;;;5031629;28;20471;-78
2023/01/04 10:36:59;;;;;;;2.23;1.07;;;11.00;99.90;;;;;;5036883;28;20458;-78
2023/01/04 10:39:30;;;;;;;2.20;0.87;;;11.00;99.90;;;;;;5037225;28;20443;-80
2023/01/04 10:41:59;;;;;;;1.97;0.90;;;11.00;99.90;;;;;;5037120;28;20450;-79
2023/01/04 10:44:37;;;;;;;1.80;0.90;;;11.00;99.90;;;;;;5037501;28;20477;-79
2023/01/04 10:47:10;;;;;;;1.97;0.90;;;10.90;99.90;;;;;;5037365;28;20486;-79
2023/01/04 10:49:42;;;;;;;1.57;0.83;;;10.90;99.90;;;;;;5033822;28;20467;-78
2023/01/04 10:52:17;;;;;;;1.50;0.80;;;11.00;99.90;;;;;;5026693;28;20440;-78
2023/01/04 10:54:47;;;;;;;3.00;1.10;;;11.00;99.90;;;;;;5027384;28;20567;-78
2023/01/04 10:57:21;;;;;;;2.00;0.80;;;11.00;99.90;;;;;;5016012;28;20469;-77
2023/01/04 10:59:54;;;;;;;1.50;0.87;;;11.00;99.90;;;;;;5013809;28;20451;-78
2023/01/04 11:02:26;;;;;;;4.20;1.10;;;11.00;99.90;;;;;;5015904;28;20930;-78
2023/01/04 11:04:59;;;;;;;1.70;1.13;;;11.00;99.90;;;;;;5017838;28;20473;-78
2023/01/04 11:07:36;;;;;;;2.60;1.17;;;11.00;99.90;;;;;;5016249;28;20429;-79
2023/01/04 11:10:09;;;;;;;2.23;0.90;;;11.10;99.90;;;;;;5016824;28;20436;-78
2023/01/04 11:12:35;;;;;;;3.93;1.33;;;11.10;99.90;;;;;;5033399;28;20810;-77
2023/01/04 11:15:03;;;;;;;1.67;0.90;;;11.10;99.90;;;;;;5032918;28;20638;-79
2023/01/04 11:17:31;;;;;;;1.93;0.97;;;11.10;99.90;;;;;;5023253;28;20465;-76
2023/01/04 11:19:58;;;;;;;1.80;0.87;;;11.10;99.90;;;;;;5013433;28;20981;-78
2023/01/04 11:22:32;;;;;;;2.90;1.30;;;11.10;99.90;;;;;;5023833;28;20463;-79
2023/01/04 11:25:03;;;;;;;1.93;1.00;;;11.10;99.90;;;;;;5035712;28;20914;-78
2023/01/04 11:27:35;;;;;;;3.77;2.27;;;11.10;99.90;;;;;;5022537;28;20543;-78
2023/01/04 11:30:05;;;;;;;2.40;1.00;;;11.20;99.90;;;;;;5019823;28;20475;-77
2023/01/04 11:32:39;;;;;;;2.90;1.10;;;11.20;99.90;;;;;;5025348;28;20490;-77
2023/01/04 11:35:06;;;;;;;2.13;1.10;;;11.20;99.90;;;;;;5038875;28;20995;-78
2023/01/04 11:37:37;;;;;;;2.97;1.20;;;11.20;99.90;;;;;;5043107;28;20473;-79
2023/01/04 11:40:20;;;;;;;1.67;1.00;;;11.20;99.90;;;;;;5036398;28;21018;-78
2023/01/04 11:42:48;;;;;;;3.03;1.43;;;11.20;99.90;;;;;;5028886;28;20514;-78
2023/01/04 11:45:21;;;;;;;3.57;0.90;;;11.30;99.90;;;;;;5035923;28;20480;-79
2023/01/04 11:47:50;;;;;;;5.97;1.10;;;11.20;99.90;;;;;;5030372;28;20965;-76
2023/01/04 11:50:36;;;;;;;2.60;1.20;;;11.20;99.90;;;;;;5015911;28;20456;-78
2023/01/04 11:53:26;;;;;;;3.80;2.70;;;11.20;99.90;;;;;;5021820;28;20454;-78
2023/01/04 11:56:13;;;;;;;4.97;1.33;;;11.30;99.90;;;;;;5027770;28;20480;-79
2023/01/04 11:58:41;;;;;;;2.33;1.20;;;11.30;99.90;;;;;;5023918;28;20463;-79
2023/01/04 12:01:20;;;;;;;7.13;1.30;;;11.30;99.90;;;;;;5034955;28;20461;-77
2023/01/04 12:03:47;;;;;;;5.23;1.00;;;11.30;99.90;;;;;;5035637;28;20447;-79
2023/01/04 12:06:18;;;;;;;1.50;0.90;;;11.30;99.90;;;;;;5035987;28;20494;-79
2023/01/04 12:08:47;;;;;;;2.80;0.80;;;11.30;99.90;;;;;;5033081;28;20558;-79
2023/01/04 12:11:25;;;;;;;2.37;1.60;;;11.40;99.90;;;;;;5034511;28;20462;-79
2023/01/04 12:13:52;;;;;;;2.50;1.00;;;11.30;99.90;;;;;;5034992;28;20956;-77
2023/01/04 12:16:28;;;;;;;1.90;1.33;;;11.40;99.90;;;;;;5034748;28;20463;-79
2023/01/04 12:18:55;;;;;;;2.40;0.73;;;11.40;99.90;;;;;;5033634;28;20449;-77
2023/01/04 12:21:24;;;;;;;3.40;0.90;;;11.40;99.90;;;;;;5027291;28;20544;-77
2023/01/04 12:23:55;;;;;;;1.83;1.20;;;11.30;99.90;;;;;;5038135;28;20457;-77
2023/01/04 12:26:22;;;;;;;2.17;1.07;;;11.40;99.90;;;;;;5028508;28;20575;-79
2023/01/04 12:28:52;;;;;;;4.53;1.50;;;11.30;99.90;;;;;;5033761;28;20448;-79
2023/01/04 12:31:30;;;;;;;1.47;0.80;;;11.40;99.90;;;;;;5029972;28;20455;-78
2023/01/04 12:33:58;;;;;;;3.87;1.20;;;11.40;99.90;;;;;;5032996;28;20952;-79
2023/01/04 12:37:00;;;;;;;2.07;1.00;;;11.40;99.90;;;;;;5033228;28;20530;-79
2023/01/04 12:39:40;;;;;;;1.50;0.90;;;11.40;99.90;;;;;;5022762;28;20460;-79
2023/01/04 12:42:20;;;;;;;5.00;1.27;;;11.40;99.90;;;;;;5020563;28;20496;-78
2023/01/04 12:45:21;;;;;;;2.03;1.00;;;11.40;99.90;;;;;;5032652;28;20526;-78
2023/01/04 12:51:20;;;;;;;2.43;1.50;;;11.40;99.90;;;;;;5025382;28;20450;-78
2023/01/04 12:53:58;;;;;;;1.43;0.90;;;11.40;99.90;;;;;;5020104;28;20992;-78
2023/01/04 12:56:58;;;;;;;2.43;1.00;;;11.40;99.90;;;;;;5022408;23;20520;-78
2023/01/04 12:59:35;;;;;;;1.60;1.00;;;11.50;99.90;;;;;;5001753;28;20502;-78
2023/01/04 13:02:22;;;;;;;3.63;0.90;;;11.50;99.90;;;;;;5000192;28;20454;-79
2023/01/04 13:04:50;;;;;;;1.97;1.10;;;11.50;99.90;;;;;;4996012;28;20489;-78
2023/01/04 13:07:25;;;;;;;2.03;1.17;;;11.50;99.90;;;;;;4999301;28;20497;-78
2023/01/04 13:09:57;;;;;;;2.03;0.80;;;11.60;99.90;;;;;;4997135;28;20454;-79
2023/01/04 13:12:57;;;;;;;1.57;0.97;;;11.60;99.90;;;;;;4990050;28;20459;-78
2023/01/04 13:15:49;;;;;;;1.97;1.00;;;11.60;99.90;;;;;;4998121;28;20564;-78
2023/01/04 13:18:44;;;;;;;2.23;0.70;;;11.50;99.90;;;;;;4990354;28;20488;-77
2023/01/04 13:21:14;;;;;;;1.50;0.90;;;11.60;99.90;;;;;;4991670;28;20860;-78
2023/01/04 13:23:48;;;;;;;1.30;0.80;;;11.60;99.90;;;;;;4994849;28;20537;-78
2023/01/04 13:26:28;;;;;;;1.93;0.90;;;11.60;99.90;;;;;;4998216;28;20495;-78
2023/01/04 13:29:11;;;;;;;4.07;1.10;;;11.60;99.90;;;;;;5001082;28;20462;-78
2023/01/04 13:31:48;;;;;;;1.60;1.00;;;11.60;99.90;;;;;;4995683;28;20832;-78
2023/01/04 13:34:22;;;;;;;1.50;0.90;;;11.60;99.90;;;;;;5007284;28;20541;-78
2023/01/04 13:36:59;;;;;;;1.40;0.70;;;11.70;99.90;;;;;;4991893;28;20608;-78
2023/01/04 13:39:26;;;;;;;2.00;0.80;;;11.70;99.90;;;;;;4988574;28;20989;-78
2023/01/04 13:41:53;;;;;;;1.50;0.90;;;11.70;99.90;;;;;;4989770;28;20529;-78
2023/01/04 13:44:33;;;;;;;1.50;0.77;;;11.70;99.90;;;;;;4990284;28;20513;-78
2023/01/04 13:47:01;;;;;;;1.80;0.93;;;11.70;99.90;;;;;;4990204;28;20497;-77
2023/01/04 13:49:28;;;;;;;2.53;0.80;;;11.70;99.90;;;;;;4988509;28;20547;-78
2023/01/04 13:51:55;;;;;;;2.37;1.10;;;11.70;99.90;;;;;;4999211;28;20537;-78
2023/01/04 13:54:23;;;;;;;1.50;0.87;;;11.70;99.90;;;;;;4993610;28;20498;-78
2023/01/04 13:56:53;;;;;;;2.33;1.00;;;11.70;99.90;;;;;;5011104;28;20501;-79
2023/01/04 13:59:20;;;;;;;2.30;1.10;;;11.70;99.90;;;;;;5001643;28;20475;-78
2023/01/04 14:01:48;;;;;;;1.40;0.80;;;11.70;99.90;;;;;;4998873;28;20466;-78